sensor_id;sensor_type;location;lat;lon;timestamp;noise_LAeq;noise_LA_min;noise_LA_max;noise_LA01;noise_LA95
75467;Laerm;64050;50.634;3.062;2024-01-30T00:00:26;45.96;36.31;50.95;;
75467;Laerm;64050;50.634;3.062;2024-01-30T00:02:51;41.36;36.73;44.82;;
75467;Laerm;64050;50.634;3.062;2024-01-30T00:05:17;48.56;40.41;52.99;;
75467;Laerm;64050;50.634;3.062;2024-01-30T00:07:42;48.87;46.13;51.76;;
75467;Laerm;64050;50.634;3.062;2024-01-30T00:10:08;48.97;45.87;52.16;;
75467;Laerm;64050;50.634;3.062;2024-01-30T00:12:33;49.07;46.01;52.07;;
75467;Laerm;64050;50.634;3.062;2024-01-30T00:14:58;46.44;36.43;52.66;;
75467;Laerm;64050;50.634;3.062;2024-01-30T00:17:23;49.83;36.85;69.02;;
75467;Laerm;64050;50.634;3.062;2024-01-30T00:19:50;56.46;37.75;76.71;;
75467;Laerm;64050;50.634;3.062;2024-01-30T00:22:15;48.53;45.37;53.63;;
75467;Laerm;64050;50.634;3.062;2024-01-30T00:24:40;47.24;36.08;50.89;;
75467;Laerm;64050;50.634;3.062;2024-01-30T00:27:06;38.92;35.89;47.81;;
75467;Laerm;64050;50.634;3.062;2024-01-30T00:29:31;39.19;35.77;55.93;;
75467;Laerm;64050;50.634;3.062;2024-01-30T00:31:58;40.26;36.28;44.07;;
75467;Laerm;64050;50.634;3.062;2024-01-30T00:34:24;44.34;37.39;51.65;;
75467;Laerm;64050;50.634;3.062;2024-01-30T00:36:49;49.23;46.50;51.74;;
75467;Laerm;64050;50.634;3.062;2024-01-30T00:39:14;49.19;46.23;51.63;;
75467;Laerm;64050;50.634;3.062;2024-01-30T00:41:40;47.89;39.98;50.83;;
75467;Laerm;64050;50.634;3.062;2024-01-30T00:44:06;40.38;35.63;44.42;;
75467;Laerm;64050;50.634;3.062;2024-01-30T00:46:31;39.22;36.40;45.91;;
75467;Laerm;64050;50.634;3.062;2024-01-30T00:48:56;42.11;35.51;53.68;;
75467;Laerm;64050;50.634;3.062;2024-01-30T00:51:22;48.59;37.52;52.44;;
75467;Laerm;64050;50.634;3.062;2024-01-30T00:53:47;49.30;46.64;52.25;;
75467;Laerm;64050;50.634;3.062;2024-01-30T00:56:12;42.31;35.95;50.46;;
75467;Laerm;64050;50.634;3.062;2024-01-30T00:58:38;38.59;35.28;47.34;;
75467;Laerm;64050;50.634;3.062;2024-01-30T01:01:03;41.16;35.88;45.02;;
75467;Laerm;64050;50.634;3.062;2024-01-30T01:03:28;41.17;36.48;45.61;;
75467;Laerm;64050;50.634;3.062;2024-01-30T01:05:54;48.33;37.03;50.97;;
75467;Laerm;64050;50.634;3.062;2024-01-30T01:08:19;48.25;45.31;50.88;;
75467;Laerm;64050;50.634;3.062;2024-01-30T01:10:45;43.15;36.64;50.95;;
75467;Laerm;64050;50.634;3.062;2024-01-30T01:13:10;39.82;36.03;44.47;;
75467;Laerm;64050;50.634;3.062;2024-01-30T01:15:35;40.62;36.86;48.32;;
75467;Laerm;64050;50.634;3.062;2024-01-30T01:18:00;38.88;35.48;55.21;;
75467;Laerm;64050;50.634;3.062;2024-01-30T01:20:26;49.10;42.07;51.48;;
75467;Laerm;64050;50.634;3.062;2024-01-30T01:22:51;47.87;39.65;59.39;;
75467;Laerm;64050;50.634;3.062;2024-01-30T01:25:18;41.76;37.09;59.36;;
75467;Laerm;64050;50.634;3.062;2024-01-30T01:27:43;39.65;36.16;49.26;;
75467;Laerm;64050;50.634;3.062;2024-01-30T01:30:16;48.27;40.69;52.15;;
75467;Laerm;64050;50.634;3.062;2024-01-30T01:32:46;46.19;35.73;50.99;;
75467;Laerm;64050;50.634;3.062;2024-01-30T01:35:15;46.50;36.33;51.28;;
75467;Laerm;64050;50.634;3.062;2024-01-30T01:37:41;48.44;45.03;50.88;;
75467;Laerm;64050;50.634;3.062;2024-01-30T01:40:06;44.43;36.29;50.44;;
75467;Laerm;64050;50.634;3.062;2024-01-30T01:42:32;38.88;36.05;43.50;;
75467;Laerm;64050;50.634;3.062;2024-01-30T01:44:57;43.93;36.19;50.17;;
75467;Laerm;64050;50.634;3.062;2024-01-30T01:47:22;47.77;39.71;51.46;;
75467;Laerm;64050;50.634;3.062;2024-01-30T01:49:47;46.00;36.31;50.98;;
75467;Laerm;64050;50.634;3.062;2024-01-30T01:52:13;48.18;45.22;58.24;;
75467;Laerm;64050;50.634;3.062;2024-01-30T01:54:38;43.66;35.67;49.92;;
75467;Laerm;64050;50.634;3.062;2024-01-30T01:57:03;40.81;35.63;47.92;;
75467;Laerm;64050;50.634;3.062;2024-01-30T01:59:29;39.01;36.22;44.22;;
75467;Laerm;64050;50.634;3.062;2024-01-30T02:01:54;47.81;36.81;51.18;;
75467;Laerm;64050;50.634;3.062;2024-01-30T02:04:20;48.83;46.10;51.56;;
75467;Laerm;64050;50.634;3.062;2024-01-30T02:06:45;46.91;36.55;50.88;;
75467;Laerm;64050;50.634;3.062;2024-01-30T02:09:11;40.85;36.54;44.66;;
75467;Laerm;64050;50.634;3.062;2024-01-30T02:11:36;38.95;35.60;52.36;;
75467;Laerm;64050;50.634;3.062;2024-01-30T02:14:02;39.94;36.00;48.30;;
75467;Laerm;64050;50.634;3.062;2024-01-30T02:16:28;47.52;39.41;51.04;;
75467;Laerm;64050;50.634;3.062;2024-01-30T02:18:53;48.40;45.09;51.99;;
75467;Laerm;64050;50.634;3.062;2024-01-30T02:21:18;47.65;36.74;50.76;;
75467;Laerm;64050;50.634;3.062;2024-01-30T02:23:44;41.03;37.08;50.48;;
75467;Laerm;64050;50.634;3.062;2024-01-30T02:26:11;40.73;36.34;49.87;;
75467;Laerm;64050;50.634;3.062;2024-01-30T02:28:37;39.17;35.92;43.09;;
75467;Laerm;64050;50.634;3.062;2024-01-30T02:31:02;45.42;36.91;51.44;;
75467;Laerm;64050;50.634;3.062;2024-01-30T02:33:27;48.38;45.27;51.01;;
75467;Laerm;64050;50.634;3.062;2024-01-30T02:35:52;47.00;39.19;51.23;;
75467;Laerm;64050;50.634;3.062;2024-01-30T02:38:18;39.36;36.24;49.90;;
75467;Laerm;64050;50.634;3.062;2024-01-30T02:40:43;39.22;36.34;44.81;;
75467;Laerm;64050;50.634;3.062;2024-01-30T02:43:08;40.43;37.03;46.24;;
75467;Laerm;64050;50.634;3.062;2024-01-30T02:45:34;41.91;39.66;50.28;;
75467;Laerm;64050;50.634;3.062;2024-01-30T02:47:59;48.05;44.94;50.66;;
75467;Laerm;64050;50.634;3.062;2024-01-30T02:50:24;44.40;36.52;50.30;;
75467;Laerm;64050;50.634;3.062;2024-01-30T02:52:49;40.87;36.94;47.30;;
75467;Laerm;64050;50.634;3.062;2024-01-30T02:55:15;40.98;35.48;45.24;;
75467;Laerm;64050;50.634;3.062;2024-01-30T02:57:42;39.08;36.18;44.65;;
75467;Laerm;64050;50.634;3.062;2024-01-30T03:00:07;40.30;35.76;49.99;;
75467;Laerm;64050;50.634;3.062;2024-01-30T03:02:34;48.35;45.22;50.90;;
75467;Laerm;64050;50.634;3.062;2024-01-30T03:04:59;43.30;36.61;49.83;;
75467;Laerm;64050;50.634;3.062;2024-01-30T03:07:25;40.37;36.91;49.42;;
75467;Laerm;64050;50.634;3.062;2024-01-30T03:09:50;46.64;37.05;50.95;;
75467;Laerm;64050;50.634;3.062;2024-01-30T03:12:15;47.39;39.68;51.21;;
75467;Laerm;64050;50.634;3.062;2024-01-30T03:14:40;41.32;36.54;47.13;;
75467;Laerm;64050;50.634;3.062;2024-01-30T03:17:06;47.44;38.96;54.55;;
75467;Laerm;64050;50.634;3.062;2024-01-30T03:19:31;46.57;36.61;50.28;;
75467;Laerm;64050;50.634;3.062;2024-01-30T03:21:56;40.86;36.34;47.09;;
75467;Laerm;64050;50.634;3.062;2024-01-30T03:24:21;40.53;36.37;48.63;;
75467;Laerm;64050;50.634;3.062;2024-01-30T03:26:47;46.78;36.53;54.22;;
75467;Laerm;64050;50.634;3.062;2024-01-30T03:29:12;45.59;36.22;50.51;;
75467;Laerm;64050;50.634;3.062;2024-01-30T03:31:38;47.20;36.10;50.98;;
75467;Laerm;64050;50.634;3.062;2024-01-30T03:34:03;47.00;35.85;52.07;;
75467;Laerm;64050;50.634;3.062;2024-01-30T03:36:28;39.33;35.78;44.51;;
75467;Laerm;64050;50.634;3.062;2024-01-30T03:38:54;41.60;36.26;47.33;;
75467;Laerm;64050;50.634;3.062;2024-01-30T03:41:19;41.81;36.80;45.19;;
75467;Laerm;64050;50.634;3.062;2024-01-30T03:43:44;48.23;39.91;51.03;;
75467;Laerm;64050;50.634;3.062;2024-01-30T03:46:11;48.41;45.29;52.41;;
75467;Laerm;64050;50.634;3.062;2024-01-30T03:48:37;43.71;36.43;50.68;;
75467;Laerm;64050;50.634;3.062;2024-01-30T03:51:02;40.86;36.73;43.38;;
75467;Laerm;64050;50.634;3.062;2024-01-30T03:53:27;40.80;36.49;51.25;;
75467;Laerm;64050;50.634;3.062;2024-01-30T03:55:53;39.19;36.40;44.86;;
75467;Laerm;64050;50.634;3.062;2024-01-30T03:58:18;42.05;36.93;50.25;;
75467;Laerm;64050;50.634;3.062;2024-01-30T04:00:43;48.87;46.37;55.97;;
75467;Laerm;64050;50.634;3.062;2024-01-30T04:03:08;42.90;36.20;50.65;;
75467;Laerm;64050;50.634;3.062;2024-01-30T04:05:33;39.71;36.15;44.51;;
75467;Laerm;64050;50.634;3.062;2024-01-30T04:07:59;41.00;37.26;48.46;;
75467;Laerm;64050;50.634;3.062;2024-01-30T04:10:24;42.46;38.04;57.59;;
75467;Laerm;64050;50.634;3.062;2024-01-30T04:12:50;44.78;38.13;51.05;;
75467;Laerm;64050;50.634;3.062;2024-01-30T04:15:16;48.85;45.73;52.99;;
75467;Laerm;64050;50.634;3.062;2024-01-30T04:17:41;46.55;37.61;50.79;;
75467;Laerm;64050;50.634;3.062;2024-01-30T04:20:07;42.54;39.63;44.95;;
75467;Laerm;64050;50.634;3.062;2024-01-30T04:22:32;45.39;38.04;51.26;;
75467;Laerm;64050;50.634;3.062;2024-01-30T04:24:57;47.67;38.34;51.48;;
75467;Laerm;64050;50.634;3.062;2024-01-30T04:27:23;42.03;38.04;50.24;;
75467;Laerm;64050;50.634;3.062;2024-01-30T04:29:48;48.77;46.05;51.05;;
75467;Laerm;64050;50.634;3.062;2024-01-30T04:32:13;46.79;38.78;50.60;;
75467;Laerm;64050;50.634;3.062;2024-01-30T04:34:38;42.02;39.19;49.46;;
75467;Laerm;64050;50.634;3.062;2024-01-30T04:37:04;47.13;39.37;50.81;;
75467;Laerm;64050;50.634;3.062;2024-01-30T04:39:29;46.04;38.96;50.86;;
75467;Laerm;64050;50.634;3.062;2024-01-30T04:41:54;41.69;38.79;45.57;;
75467;Laerm;64050;50.634;3.062;2024-01-30T04:44:20;45.76;38.31;50.91;;
75467;Laerm;64050;50.634;3.062;2024-01-30T04:46:45;48.57;42.57;51.61;;
75467;Laerm;64050;50.634;3.062;2024-01-30T04:49:10;43.13;39.55;46.89;;
75467;Laerm;64050;50.634;3.062;2024-01-30T04:51:35;42.72;39.47;48.35;;
75467;Laerm;64050;50.634;3.062;2024-01-30T04:54:01;48.01;39.94;51.25;;
75467;Laerm;64050;50.634;3.062;2024-01-30T04:56:26;45.50;41.69;50.57;;
75467;Laerm;64050;50.634;3.062;2024-01-30T04:58:51;43.80;39.71;57.81;;
75467;Laerm;64050;50.634;3.062;2024-01-30T05:01:16;49.39;46.71;52.26;;
75467;Laerm;64050;50.634;3.062;2024-01-30T05:03:42;48.56;40.13;60.19;;
75467;Laerm;64050;50.634;3.062;2024-01-30T05:06:07;44.45;40.73;50.58;;
75467;Laerm;64050;50.634;3.062;2024-01-30T05:08:32;45.11;41.27;49.87;;
75467;Laerm;64050;50.634;3.062;2024-01-30T05:11:01;48.48;41.83;51.51;;
75467;Laerm;64050;50.634;3.062;2024-01-30T05:13:28;47.05;41.84;51.43;;
75467;Laerm;64050;50.634;3.062;2024-01-30T05:15:53;48.87;42.21;52.36;;
75467;Laerm;64050;50.634;3.062;2024-01-30T05:18:19;50.19;46.76;59.55;;
75467;Laerm;64050;50.634;3.062;2024-01-30T05:20:44;45.44;41.52;52.27;;
75467;Laerm;64050;50.634;3.062;2024-01-30T05:23:09;45.82;42.11;52.14;;
75467;Laerm;64050;50.634;3.062;2024-01-30T05:25:34;47.54;42.11;57.30;;
75467;Laerm;64050;50.634;3.062;2024-01-30T05:27:59;48.72;42.31;53.00;;
75467;Laerm;64050;50.634;3.062;2024-01-30T05:30:25;47.25;42.08;51.55;;
75467;Laerm;64050;50.634;3.062;2024-01-30T05:32:50;49.09;46.03;51.74;;
75467;Laerm;64050;50.634;3.062;2024-01-30T05:35:15;46.25;42.12;56.35;;
75467;Laerm;64050;50.634;3.062;2024-01-30T05:37:41;46.54;42.38;51.51;;
75467;Laerm;64050;50.634;3.062;2024-01-30T05:40:06;46.60;42.50;53.74;;
75467;Laerm;64050;50.634;3.062;2024-01-30T05:42:31;49.02;43.11;55.15;;
75467;Laerm;64050;50.634;3.062;2024-01-30T05:44:57;48.99;43.04;55.65;;
75467;Laerm;64050;50.634;3.062;2024-01-30T05:47:22;48.75;42.38;58.61;;
75467;Laerm;64050;50.634;3.062;2024-01-30T05:49:47;46.93;42.20;56.50;;
75467;Laerm;64050;50.634;3.062;2024-01-30T05:52:13;47.02;43.19;54.07;;
75467;Laerm;64050;50.634;3.062;2024-01-30T05:54:38;46.73;42.53;53.09;;
75467;Laerm;64050;50.634;3.062;2024-01-30T05:57:03;49.37;46.34;52.87;;
75467;Laerm;64050;50.634;3.062;2024-01-30T05:59:29;48.71;43.57;55.71;;
75467;Laerm;64050;50.634;3.062;2024-01-30T06:01:54;51.92;46.64;77.62;;
75467;Laerm;64050;50.634;3.062;2024-01-30T06:04:19;48.26;42.05;58.02;;
75467;Laerm;64050;50.634;3.062;2024-01-30T06:06:44;45.87;42.43;52.16;;
75467;Laerm;64050;50.634;3.062;2024-01-30T06:09:10;47.61;41.49;59.51;;
75467;Laerm;64050;50.634;3.062;2024-01-30T06:11:35;45.54;42.10;54.60;;
75467;Laerm;64050;50.634;3.062;2024-01-30T06:14:00;47.50;41.57;68.83;;
75467;Laerm;64050;50.634;3.062;2024-01-30T06:16:26;51.30;41.37;68.32;;
75467;Laerm;64050;50.634;3.062;2024-01-30T06:18:54;48.18;43.23;52.24;;
75467;Laerm;64050;50.634;3.062;2024-01-30T06:21:20;45.90;42.75;48.68;;
75467;Laerm;64050;50.634;3.062;2024-01-30T06:23:45;46.23;42.79;51.06;;
75467;Laerm;64050;50.634;3.062;2024-01-30T06:26:11;46.94;42.31;55.34;;
75467;Laerm;64050;50.634;3.062;2024-01-30T06:28:36;46.54;42.80;60.89;;
75467;Laerm;64050;50.634;3.062;2024-01-30T06:31:01;48.02;44.76;60.71;;
75467;Laerm;64050;50.634;3.062;2024-01-30T06:33:26;48.89;43.56;53.91;;
75467;Laerm;64050;50.634;3.062;2024-01-30T06:35:52;49.84;47.13;55.40;;
75467;Laerm;64050;50.634;3.062;2024-01-30T06:38:17;47.66;43.43;52.25;;
75467;Laerm;64050;50.634;3.062;2024-01-30T06:40:42;50.31;47.29;54.06;;
75467;Laerm;64050;50.634;3.062;2024-01-30T06:43:08;48.03;41.55;52.72;;
75467;Laerm;64050;50.634;3.062;2024-01-30T06:45:33;45.85;41.50;57.92;;
75467;Laerm;64050;50.634;3.062;2024-01-30T06:47:59;46.88;42.62;61.06;;
75467;Laerm;64050;50.634;3.062;2024-01-30T06:50:25;49.23;44.40;66.91;;
75467;Laerm;64050;50.634;3.062;2024-01-30T06:52:50;54.23;46.96;69.88;;
75467;Laerm;64050;50.634;3.062;2024-01-30T06:55:16;53.36;43.39;70.04;;
75467;Laerm;64050;50.634;3.062;2024-01-30T06:57:41;52.21;43.24;68.97;;
75467;Laerm;64050;50.634;3.062;2024-01-30T07:00:06;52.64;42.91;65.81;;
75467;Laerm;64050;50.634;3.062;2024-01-30T07:02:32;53.31;42.97;68.01;;
75467;Laerm;64050;50.634;3.062;2024-01-30T07:04:57;48.57;44.00;60.95;;
75467;Laerm;64050;50.634;3.062;2024-01-30T07:07:22;52.00;44.22;71.77;;
75467;Laerm;64050;50.634;3.062;2024-01-30T07:09:47;51.54;42.23;71.85;;
75467;Laerm;64050;50.634;3.062;2024-01-30T07:12:14;48.48;41.74;70.95;;
75467;Laerm;64050;50.634;3.062;2024-01-30T07:14:39;56.51;42.20;76.44;;
75467;Laerm;64050;50.634;3.062;2024-01-30T07:17:05;56.84;43.47;74.55;;
75467;Laerm;64050;50.634;3.062;2024-01-30T07:19:31;55.15;43.28;80.94;;
75467;Laerm;64050;50.634;3.062;2024-01-30T07:21:56;55.80;43.24;78.94;;
75467;Laerm;64050;50.634;3.062;2024-01-30T07:24:21;56.15;42.75;78.57;;
75467;Laerm;64050;50.634;3.062;2024-01-30T07:26:46;59.78;42.71;83.11;;
75467;Laerm;64050;50.634;3.062;2024-01-30T07:29:12;58.12;41.26;81.79;;
75467;Laerm;64050;50.634;3.062;2024-01-30T07:31:37;49.48;40.88;66.39;;
75467;Laerm;64050;50.634;3.062;2024-01-30T07:34:02;50.39;42.07;69.66;;
75467;Laerm;64050;50.634;3.062;2024-01-30T07:36:27;47.29;41.89;69.01;;
75467;Laerm;64050;50.634;3.062;2024-01-30T07:38:53;48.84;41.42;56.72;;
75467;Laerm;64050;50.634;3.062;2024-01-30T07:41:19;47.50;41.81;62.17;;
75467;Laerm;64050;50.634;3.062;2024-01-30T07:43:45;54.05;41.77;73.59;;
75467;Laerm;64050;50.634;3.062;2024-01-30T07:46:10;45.75;41.16;57.78;;
75467;Laerm;64050;50.634;3.062;2024-01-30T07:48:35;46.46;41.03;60.06;;
75467;Laerm;64050;50.634;3.062;2024-01-30T07:51:00;47.66;42.55;58.66;;
75467;Laerm;64050;50.634;3.062;2024-01-30T07:53:26;49.47;43.25;60.81;;
75467;Laerm;64050;50.634;3.062;2024-01-30T07:55:51;56.25;43.85;80.42;;
75467;Laerm;64050;50.634;3.062;2024-01-30T07:58:17;48.85;42.89;60.89;;
75467;Laerm;64050;50.634;3.062;2024-01-30T08:00:42;49.71;44.05;60.44;;
75467;Laerm;64050;50.634;3.062;2024-01-30T08:03:07;52.38;42.02;64.54;;
75467;Laerm;64050;50.634;3.062;2024-01-30T08:05:32;48.14;42.91;60.83;;
75467;Laerm;64050;50.634;3.062;2024-01-30T08:07:58;50.07;44.09;57.57;;
75467;Laerm;64050;50.634;3.062;2024-01-30T08:10:23;49.15;42.62;70.51;;
75467;Laerm;64050;50.634;3.062;2024-01-30T08:12:48;49.06;43.14;71.66;;
75467;Laerm;64050;50.634;3.062;2024-01-30T08:15:13;55.24;42.49;72.25;;
75467;Laerm;64050;50.634;3.062;2024-01-30T08:17:39;56.64;52.74;64.80;;
75467;Laerm;64050;50.634;3.062;2024-01-30T08:20:04;54.86;44.91;74.40;;
75467;Laerm;64050;50.634;3.062;2024-01-30T08:22:30;57.83;45.84;81.30;;
75467;Laerm;64050;50.634;3.062;2024-01-30T08:24:55;54.19;44.24;73.45;;
75467;Laerm;64050;50.634;3.062;2024-01-30T08:27:20;52.49;43.32;72.02;;
75467;Laerm;64050;50.634;3.062;2024-01-30T08:29:45;49.26;41.70;68.71;;
75467;Laerm;64050;50.634;3.062;2024-01-30T08:32:11;47.89;42.46;71.26;;
75467;Laerm;64050;50.634;3.062;2024-01-30T08:34:36;47.57;43.54;56.47;;
75467;Laerm;64050;50.634;3.062;2024-01-30T08:37:02;50.91;43.76;67.28;;
75467;Laerm;64050;50.634;3.062;2024-01-30T08:39:28;49.78;44.81;58.16;;
75467;Laerm;64050;50.634;3.062;2024-01-30T08:41:53;48.48;41.65;66.30;;
75467;Laerm;64050;50.634;3.062;2024-01-30T08:44:18;50.10;42.87;61.86;;
75467;Laerm;64050;50.634;3.062;2024-01-30T08:46:44;46.67;41.72;59.69;;
75467;Laerm;64050;50.634;3.062;2024-01-30T08:49:10;48.19;41.93;62.85;;
75467;Laerm;64050;50.634;3.062;2024-01-30T08:51:35;48.98;42.84;68.33;;
75467;Laerm;64050;50.634;3.062;2024-01-30T08:54:01;50.89;42.96;61.80;;
75467;Laerm;64050;50.634;3.062;2024-01-30T08:56:26;48.39;41.97;56.39;;
75467;Laerm;64050;50.634;3.062;2024-01-30T08:58:51;47.68;41.90;57.25;;
75467;Laerm;64050;50.634;3.062;2024-01-30T09:01:17;48.64;41.91;55.84;;
75467;Laerm;64050;50.634;3.062;2024-01-30T09:03:42;49.44;42.56;57.32;;
75467;Laerm;64050;50.634;3.062;2024-01-30T09:06:10;50.74;43.32;59.20;;
75467;Laerm;64050;50.634;3.062;2024-01-30T09:08:35;49.45;41.98;60.72;;
75467;Laerm;64050;50.634;3.062;2024-01-30T09:11:01;48.67;42.67;58.10;;
75467;Laerm;64050;50.634;3.062;2024-01-30T09:13:26;46.74;41.95;56.95;;
75467;Laerm;64050;50.634;3.062;2024-01-30T09:15:51;46.42;42.05;55.96;;
75467;Laerm;64050;50.634;3.062;2024-01-30T09:18:17;48.91;41.61;66.95;;
75467;Laerm;64050;50.634;3.062;2024-01-30T09:20:43;51.34;44.57;73.65;;
75467;Laerm;64050;50.634;3.062;2024-01-30T09:23:08;46.20;41.19;60.43;;
75467;Laerm;64050;50.634;3.062;2024-01-30T09:25:33;50.24;42.97;63.64;;
75467;Laerm;64050;50.634;3.062;2024-01-30T09:27:59;47.65;42.76;73.37;;
75467;Laerm;64050;50.634;3.062;2024-01-30T09:30:24;48.93;43.61;67.67;;
75467;Laerm;64050;50.634;3.062;2024-01-30T09:32:50;50.46;43.62;69.93;;
75467;Laerm;64050;50.634;3.062;2024-01-30T09:35:15;50.19;43.49;63.17;;
75467;Laerm;64050;50.634;3.062;2024-01-30T09:37:40;52.13;46.38;67.17;;
75467;Laerm;64050;50.634;3.062;2024-01-30T09:40:06;48.25;44.18;65.06;;
75467;Laerm;64050;50.634;3.062;2024-01-30T09:44:56;54.16;43.31;73.04;;
75467;Laerm;64050;50.634;3.062;2024-01-30T09:47:22;52.09;47.32;66.41;;
75467;Laerm;64050;50.634;3.062;2024-01-30T09:49:47;53.90;50.05;64.05;;
75467;Laerm;64050;50.634;3.062;2024-01-30T09:52:12;54.17;47.99;65.60;;
75467;Laerm;64050;50.634;3.062;2024-01-30T09:54:38;51.79;47.77;63.44;;
75467;Laerm;64050;50.634;3.062;2024-01-30T09:57:03;53.10;47.75;75.88;;
75467;Laerm;64050;50.634;3.062;2024-01-30T09:59:29;51.95;46.60;63.11;;
75467;Laerm;64050;50.634;3.062;2024-01-30T10:01:54;50.21;46.39;71.64;;
75467;Laerm;64050;50.634;3.062;2024-01-30T10:04:20;50.88;45.69;63.47;;
75467;Laerm;64050;50.634;3.062;2024-01-30T10:06:45;49.33;44.52;65.88;;
75467;Laerm;64050;50.634;3.062;2024-01-30T10:09:11;53.71;48.67;67.01;;
75467;Laerm;64050;50.634;3.062;2024-01-30T10:11:36;52.34;48.74;66.22;;
75467;Laerm;64050;50.634;3.062;2024-01-30T10:14:02;49.02;42.22;54.86;;
75467;Laerm;64050;50.634;3.062;2024-01-30T10:16:27;48.20;43.41;66.54;;
75467;Laerm;64050;50.634;3.062;2024-01-30T10:18:52;47.45;43.81;55.04;;
75467;Laerm;64050;50.634;3.062;2024-01-30T10:21:17;47.72;43.77;64.32;;
75467;Laerm;64050;50.634;3.062;2024-01-30T10:23:43;48.42;43.88;69.20;;
75467;Laerm;64050;50.634;3.062;2024-01-30T10:26:08;48.68;42.44;53.96;;
75467;Laerm;64050;50.634;3.062;2024-01-30T10:28:33;50.33;46.69;60.56;;
75467;Laerm;64050;50.634;3.062;2024-01-30T10:30:59;48.33;43.32;54.76;;
75467;Laerm;64050;50.634;3.062;2024-01-30T10:33:25;47.64;43.01;65.08;;
75467;Laerm;64050;50.634;3.062;2024-01-30T10:35:50;48.64;43.90;63.25;;
75467;Laerm;64050;50.634;3.062;2024-01-30T10:38:16;49.57;44.73;72.29;;
75467;Laerm;64050;50.634;3.062;2024-01-30T10:40:44;49.09;43.51;61.01;;
75467;Laerm;64050;50.634;3.062;2024-01-30T10:43:10;53.10;48.00;67.28;;
75467;Laerm;64050;50.634;3.062;2024-01-30T10:45:36;50.25;44.32;59.85;;
75467;Laerm;64050;50.634;3.062;2024-01-30T10:48:03;49.16;42.60;70.51;;
75467;Laerm;64050;50.634;3.062;2024-01-30T10:50:30;50.84;43.56;64.74;;
75467;Laerm;64050;50.634;3.062;2024-01-30T10:52:55;55.24;42.08;79.00;;
75467;Laerm;64050;50.634;3.062;2024-01-30T10:55:22;47.90;42.44;63.46;;
75467;Laerm;64050;50.634;3.062;2024-01-30T10:57:50;50.72;47.10;63.79;;
75467;Laerm;64050;50.634;3.062;2024-01-30T11:00:15;49.97;43.01;58.64;;
75467;Laerm;64050;50.634;3.062;2024-01-30T11:02:42;47.26;43.60;55.67;;
75467;Laerm;64050;50.634;3.062;2024-01-30T11:05:07;48.55;44.19;59.02;;
75467;Laerm;64050;50.634;3.062;2024-01-30T11:07:33;51.63;44.57;67.43;;
75467;Laerm;64050;50.634;3.062;2024-01-30T11:12:25;49.81;44.08;54.95;;
75467;Laerm;64050;50.634;3.062;2024-01-30T11:20:16;45.88;42.30;56.32;;
75467;Laerm;64050;50.634;3.062;2024-01-30T11:22:42;49.13;42.18;71.33;;
75467;Laerm;64050;50.634;3.062;2024-01-30T11:25:18;50.54;46.68;65.64;;
75467;Laerm;64050;50.634;3.062;2024-01-30T11:27:44;50.38;46.70;57.94;;
75467;Laerm;64050;50.634;3.062;2024-01-30T11:30:10;46.80;42.66;59.90;;
75467;Laerm;64050;50.634;3.062;2024-01-30T11:32:35;50.19;46.05;63.89;;
75467;Laerm;64050;50.634;3.062;2024-01-30T11:35:03;50.32;44.07;57.50;;
75467;Laerm;64050;50.634;3.062;2024-01-30T11:37:28;47.81;43.12;69.40;;
75467;Laerm;64050;50.634;3.062;2024-01-30T11:39:55;48.45;43.04;58.86;;
75467;Laerm;64050;50.634;3.062;2024-01-30T11:42:22;50.20;46.23;56.31;;
75467;Laerm;64050;50.634;3.062;2024-01-30T11:44:49;51.91;47.53;61.06;;
75467;Laerm;64050;50.634;3.062;2024-01-30T11:47:15;50.54;45.37;55.30;;
75467;Laerm;64050;50.634;3.062;2024-01-30T11:49:41;49.99;45.45;61.75;;
75467;Laerm;64050;50.634;3.062;2024-01-30T11:52:06;51.65;47.78;66.64;;
75467;Laerm;64050;50.634;3.062;2024-01-30T11:54:32;53.86;46.88;77.39;;
75467;Laerm;64050;50.634;3.062;2024-01-30T11:56:57;50.57;45.92;60.35;;
75467;Laerm;64050;50.634;3.062;2024-01-30T11:59:22;50.04;46.30;57.81;;
75467;Laerm;64050;50.634;3.062;2024-01-30T12:01:48;53.99;46.10;74.13;;
75467;Laerm;64050;50.634;3.062;2024-01-30T12:04:14;52.54;46.52;68.40;;
75467;Laerm;64050;50.634;3.062;2024-01-30T12:06:40;50.17;46.02;65.22;;
75467;Laerm;64050;50.634;3.062;2024-01-30T12:09:05;51.70;47.99;61.50;;
75467;Laerm;64050;50.634;3.062;2024-01-30T12:11:33;52.01;45.61;65.82;;
75467;Laerm;64050;50.634;3.062;2024-01-30T12:14:08;50.55;46.45;61.24;;
75467;Laerm;64050;50.634;3.062;2024-01-30T12:16:33;51.59;46.13;68.41;;
75467;Laerm;64050;50.634;3.062;2024-01-30T12:19:01;51.14;45.86;64.85;;
75467;Laerm;64050;50.634;3.062;2024-01-30T12:21:27;50.47;46.31;61.74;;
75467;Laerm;64050;50.634;3.062;2024-01-30T12:23:53;51.59;45.38;55.44;;
75467;Laerm;64050;50.634;3.062;2024-01-30T12:26:18;51.67;46.84;61.39;;
75467;Laerm;64050;50.634;3.062;2024-01-30T12:28:50;50.63;46.20;67.50;;
75467;Laerm;64050;50.634;3.062;2024-01-30T12:31:15;50.18;46.26;56.31;;
75467;Laerm;64050;50.634;3.062;2024-01-30T12:33:40;50.41;45.79;64.72;;
75467;Laerm;64050;50.634;3.062;2024-01-30T12:36:06;49.51;45.37;54.02;;
75467;Laerm;64050;50.634;3.062;2024-01-30T12:38:31;51.06;46.07;68.94;;
75467;Laerm;64050;50.634;3.062;2024-01-30T12:40:57;49.53;45.60;62.90;;
75467;Laerm;64050;50.634;3.062;2024-01-30T12:43:26;49.35;44.87;61.74;;
75467;Laerm;64050;50.634;3.062;2024-01-30T12:45:54;49.39;45.85;57.75;;
75467;Laerm;64050;50.634;3.062;2024-01-30T12:48:20;49.77;45.62;58.08;;
75467;Laerm;64050;50.634;3.062;2024-01-30T12:50:45;49.82;46.12;62.83;;
75467;Laerm;64050;50.634;3.062;2024-01-30T12:53:10;50.29;45.35;61.59;;
75467;Laerm;64050;50.634;3.062;2024-01-30T12:55:37;50.52;46.66;57.66;;
75467;Laerm;64050;50.634;3.062;2024-01-30T12:58:02;50.80;45.76;59.79;;
75467;Laerm;64050;50.634;3.062;2024-01-30T13:00:28;50.41;45.89;62.60;;
75467;Laerm;64050;50.634;3.062;2024-01-30T13:02:53;51.30;45.72;62.63;;
75467;Laerm;64050;50.634;3.062;2024-01-30T13:05:18;52.10;46.89;63.25;;
75467;Laerm;64050;50.634;3.062;2024-01-30T13:07:43;52.53;47.71;64.07;;
75467;Laerm;64050;50.634;3.062;2024-01-30T13:10:09;52.17;47.78;68.22;;
75467;Laerm;64050;50.634;3.062;2024-01-30T13:12:34;51.96;48.47;60.40;;
75467;Laerm;64050;50.634;3.062;2024-01-30T13:15:00;51.21;46.54;58.79;;
75467;Laerm;64050;50.634;3.062;2024-01-30T13:17:30;49.24;45.48;60.60;;
75467;Laerm;64050;50.634;3.062;2024-01-30T13:19:55;51.48;47.01;54.48;;
75467;Laerm;64050;50.634;3.062;2024-01-30T13:22:20;52.26;47.77;61.33;;
75467;Laerm;64050;50.634;3.062;2024-01-30T13:24:49;51.59;46.47;65.77;;
75467;Laerm;64050;50.634;3.062;2024-01-30T13:27:14;52.38;46.58;63.85;;
75467;Laerm;64050;50.634;3.062;2024-01-30T13:29:39;50.47;46.32;60.14;;
75467;Laerm;64050;50.634;3.062;2024-01-30T13:32:04;53.70;47.30;66.06;;
75467;Laerm;64050;50.634;3.062;2024-01-30T13:34:30;52.30;46.96;69.18;;
75467;Laerm;64050;50.634;3.062;2024-01-30T13:36:55;51.51;46.38;63.86;;
75467;Laerm;64050;50.634;3.062;2024-01-30T13:39:21;50.13;43.77;64.60;;
75467;Laerm;64050;50.634;3.062;2024-01-30T13:41:46;48.45;41.42;65.34;;
75467;Laerm;64050;50.634;3.062;2024-01-30T13:44:13;50.13;42.77;73.32;;